< Typhoon 198418 1984 Season Typhoon 198420 >
Typhoon 198419 (ROY)
General InformationTrack Information on Google MapsDetailed Wind InformationList of All Images || Disaster Info.ResourceGoogle EarthGE AnimationAtom FeedGeoJSON
Detalied Best Track (Time Zone = UTC)
Year Month Day Hour Lat. Long. Pressure (hPa) Wind (kt) Class Image Chart
1984 10 9 06 9.0 141.5 1006 0 2 Image Chart
1984 10 9 12 9.5 141.5 1006 0 2 Image Chart
1984 10 9 18 10.5 141.0 1004 0 2 Image Chart
1984 10 10 00 11.0 141.0 1004 0 2 Image Chart
1984 10 10 06 11.5 141.5 1004 0 2 Image Chart
1984 10 10 12 12.0 142.0 1006 0 2 Image Chart
1984 10 10 18 12.5 142.5 1004 0 2 Image Chart
1984 10 11 00 12.8 143.3 1000 0 2 Image Chart
1984 10 11 06 13.7 143.1 1000 35 3 Image Chart
1984 10 11 12 14.4 143.2 1000 35 3 Image Chart
1984 10 11 18 14.9 143.3 998 40 3 Image Chart
1984 10 12 00 15.3 143.3 998 40 3 Image Chart
1984 10 12 06 16.3 143.5 996 40 3 Image Chart
1984 10 12 12 17.3 143.7 998 40 3 Image Chart
1984 10 12 18 18.5 144.1 998 40 3 Image Chart
1984 10 13 00 20.2 145.2 1000 0 2 Image Chart
1984 10 13 06 21.3 146.0 1000 0 2 Image Chart
1984 10 13 12 22.6 146.8 1004 0 2 Image Chart
1984 10 13 18 24.2 147.8 1004 0 2 Image Chart
1984 10 14 00 26.0 149.0 1004 0 2 Image Chart
Japan Meteorological Agency Best Track Data | Correction Date : 1992-10-21
< Typhoon 198418 1984 Season Typhoon 198420 >

Help